Meteo Giornale » Osservazioni meteo Italia » Frontone

ore: 05:55 - Osservazioni Meteo Frontone
Lat. 43° 31' N Lon. 12° 44' E Alt. 570 metri s.l.m.

sereno Europe/Rome

23 °C

Sereno

Temp. 24 Ore

21 °C

33 °C

Est/Sud-Est

7.4 Km/h

Dew point 17 °C

Umidità 68 %

Visibilità  10 Km

Il sole sorge alle ore 06:15

Il sole tramonta alle ore 20:10

Data e Ora Cielo e Fenomeni T °C DP °C Um. % Pres. hPa Vis. km Vento km/h
Oggi h: 05:55 sereno Sereno 23 17 68 1012 10 E/SE 7.4
Oggi h: 04:55 sereno Sereno 23 18 73 1013 10 N 0
Oggi h: 03:55 sereno Sereno 23 18 73 1013 10 N 0
Oggi h: 02:55 sereno Sereno 23 17 68 1013 10 N 0
Oggi h: 01:55 sereno Sereno 24 17 64 1014 10 N 0
Oggi h: 00:55 sereno Sereno 24 18 69 1014 10 N 5.5
Ieri h: 23:55 sereno Sereno 24 18 69 1014 10 S 9.3
Ieri h: 22:55 sereno Sereno 24 17 64 1014 10 E/SE 7.4
Ieri h: 21:55 sereno Sereno 25 16 57 1013 10 N 5.5
Ieri h: 20:55 sereno Sereno 26 17 57 1013 10 E/SE 11.1
Ieri h: 19:55 sereno Sereno 27 17 54 1013 10 E 9.3
Ieri h: 18:55 poco_nuvoloso Poco Nuvoloso 28 18 54 1013 10 N 5.5
Ieri h: 17:55 poco_nuvoloso Poco Nuvoloso 28 17 51 1013 10 N/NE 7.4
Ieri h: 16:55 poco_nuvoloso Poco Nuvoloso 29 18 51 1013 10 N/NO 9.3
Ieri h: 15:55 poco_nuvoloso Poco Nuvoloso 33 12 27 1014 10 N 5.5
Ieri h: 14:55 poco_nuvoloso Poco Nuvoloso 32 11 27 1014 10 SO 7.4
Ieri h: 13:55 poco_nuvoloso Poco Nuvoloso 30 14 37 1014 10 N 5.5
Ieri h: 12:55 sereno Sereno 29 15 42 1014 10 N 5.5
Ieri h: 11:55 sereno Sereno 28 17 51 1014 10 N 5.5
Ieri h: 10:55 sereno Sereno 27 18 57 1014 10 N 5.5
Ieri h: 09:55 sereno Sereno 24 18 69 1014 10 N 5.5
Ieri h: 08:55 poco_nuvoloso Poco Nuvoloso 23 18 73 1014 10 N 0
Ieri h: 07:55 poco_nuvoloso Poco Nuvoloso 22 18 78 1013 10 N 0
Ieri h: 06:55 poco_nuvoloso Poco Nuvoloso 21 17 77 1013 10 SO 7.4